Villa Caliz, Puerto Rico
Current Conditions -  °F | °C
As of 1:56 AM on Friday 31 Oct 2014 (Local Time) from TJSJ Reporting Station
Scattered Clouds Scattered Clouds  
Wind Chill: 79°   Ceiling: Unl
Heat Index: 83°   Visibility: 10mi
Dew Point: 76°   Wind: 0mph
Humidity: 90%   Direction: NA
Pressure: 29.83"   Gusts: NA
Location:  18.2351°N, 66.0374°W
Report Text: TJSJ 310556Z 00000KT 10SM SCT060 SCT070 26/24 A2983 RMK AO2 SLP099 SHRA DSNT NE T02610244 10272 20256 58011
Loading
Personal Weather Stations






























Interactive Weather Map New forecast layout! Learn more

10-Day Weather Forecast

Advertisements
Track Severe Weather on mobile